sensor_id;sensor_type;location;lat;lon;timestamp;pressure;altitude;pressure_sealevel;temperature;humidity
18985;BME280;9626;52.552;13.436;2023-02-14T00:02:12;103160.72;;;5.42;100.00
18985;BME280;9626;52.552;13.436;2023-02-14T00:04:38;103159.59;;;5.36;100.00
18985;BME280;9626;52.552;13.436;2023-02-14T00:07:27;103165.47;;;5.30;100.00
18985;BME280;9626;52.552;13.436;2023-02-14T00:09:53;103159.22;;;5.27;100.00
18985;BME280;9626;52.552;13.436;2023-02-14T00:12:19;103158.44;;;5.29;100.00
18985;BME280;9626;52.552;13.436;2023-02-14T00:15:03;103154.13;;;5.31;100.00
18985;BME280;9626;52.552;13.436;2023-02-14T00:18:06;103149.59;;;5.27;100.00
18985;BME280;9626;52.552;13.436;2023-02-14T00:20:32;103159.38;;;5.31;100.00
18985;BME280;9626;52.552;13.436;2023-02-14T00:23:14;103152.53;;;5.35;100.00
18985;BME280;9626;52.552;13.436;2023-02-14T00:25:58;103155.88;;;5.31;100.00
18985;BME280;9626;52.552;13.436;2023-02-14T00:28:43;103154.97;;;5.30;100.00
18985;BME280;9626;52.552;13.436;2023-02-14T00:31:28;103154.72;;;5.24;100.00
18985;BME280;9626;52.552;13.436;2023-02-14T00:34:14;103151.28;;;5.25;100.00
18985;BME280;9626;52.552;13.436;2023-02-14T00:36:58;103151.38;;;5.28;100.00
18985;BME280;9626;52.552;13.436;2023-02-14T00:39:43;103149.59;;;5.27;100.00
18985;BME280;9626;52.552;13.436;2023-02-14T00:42:27;103145.88;;;5.22;100.00
18985;BME280;9626;52.552;13.436;2023-02-14T00:44:53;103151.00;;;5.19;100.00
18985;BME280;9626;52.552;13.436;2023-02-14T00:47:38;103149.97;;;5.15;100.00
18985;BME280;9626;52.552;13.436;2023-02-14T00:50:22;103148.56;;;5.23;100.00
18985;BME280;9626;52.552;13.436;2023-02-14T00:53:06;103152.03;;;5.22;100.00
18985;BME280;9626;52.552;13.436;2023-02-14T00:55:51;103154.84;;;5.27;100.00
18985;BME280;9626;52.552;13.436;2023-02-14T00:58:35;103150.22;;;5.21;100.00
18985;BME280;9626;52.552;13.436;2023-02-14T01:01:20;103139.41;;;5.14;100.00
18985;BME280;9626;52.552;13.436;2023-02-14T01:04:04;103148.13;;;5.13;100.00
18985;BME280;9626;52.552;13.436;2023-02-14T01:06:49;103145.50;;;5.13;100.00
18985;BME280;9626;52.552;13.436;2023-02-14T01:09:24;103145.88;;;5.22;100.00
18985;BME280;9626;52.552;13.436;2023-02-14T01:12:08;103141.38;;;5.19;100.00
18985;BME280;9626;52.552;13.436;2023-02-14T01:14:53;103141.00;;;5.31;100.00
18985;BME280;9626;52.552;13.436;2023-02-14T01:17:38;103134.22;;;5.36;100.00
18985;BME280;9626;52.552;13.436;2023-02-14T01:20:23;103130.59;;;5.34;100.00
18985;BME280;9626;52.552;13.436;2023-02-14T01:23:08;103128.94;;;5.36;100.00
18985;BME280;9626;52.552;13.436;2023-02-14T01:25:53;103123.63;;;5.35;100.00
18985;BME280;9626;52.552;13.436;2023-02-14T01:28:37;103133.81;;;5.27;100.00
18985;BME280;9626;52.552;13.436;2023-02-14T01:31:28;103128.19;;;5.18;100.00
18985;BME280;9626;52.552;13.436;2023-02-14T01:34:13;103124.50;;;5.13;100.00
18985;BME280;9626;52.552;13.436;2023-02-14T01:36:58;103129.88;;;5.16;100.00
18985;BME280;9626;52.552;13.436;2023-02-14T01:39:42;103127.19;;;5.14;100.00
18985;BME280;9626;52.552;13.436;2023-02-14T01:42:28;103125.44;;;5.15;100.00
18985;BME280;9626;52.552;13.436;2023-02-14T01:45:19;103121.00;;;5.14;100.00
18985;BME280;9626;52.552;13.436;2023-02-14T01:48:04;103105.13;;;5.11;100.00
18985;BME280;9626;52.552;13.436;2023-02-14T01:50:51;103111.09;;;5.06;100.00
18985;BME280;9626;52.552;13.436;2023-02-14T01:53:33;103114.69;;;5.08;100.00
18985;BME280;9626;52.552;13.436;2023-02-14T01:56:22;103108.53;;;5.08;100.00
18985;BME280;9626;52.552;13.436;2023-02-14T01:59:11;103104.75;;;5.01;100.00
18985;BME280;9626;52.552;13.436;2023-02-14T02:01:57;103113.53;;;5.02;100.00
18985;BME280;9626;52.552;13.436;2023-02-14T02:04:44;103102.81;;;4.97;100.00
18985;BME280;9626;52.552;13.436;2023-02-14T02:07:30;103110.97;;;5.03;100.00
18985;BME280;9626;52.552;13.436;2023-02-14T02:10:14;103111.69;;;4.99;100.00
18985;BME280;9626;52.552;13.436;2023-02-14T02:13:03;103114.53;;;5.05;100.00
18985;BME280;9626;52.552;13.436;2023-02-14T02:15:57;103108.28;;;5.02;100.00
18985;BME280;9626;52.552;13.436;2023-02-14T02:19:23;103111.78;;;5.02;100.00
18985;BME280;9626;52.552;13.436;2023-02-14T02:25:10;103116.94;;;4.99;100.00
18985;BME280;9626;52.552;13.436;2023-02-14T02:35:13;103113.72;;;5.06;100.00
18985;BME280;9626;52.552;13.436;2023-02-14T02:40:52;103104.09;;;5.07;100.00
18985;BME280;9626;52.552;13.436;2023-02-14T02:46:39;103107.25;;;4.98;100.00
18985;BME280;9626;52.552;13.436;2023-02-14T02:56:24;103113.59;;;5.03;100.00
18985;BME280;9626;52.552;13.436;2023-02-14T02:59:14;103118.84;;;5.03;100.00
18985;BME280;9626;52.552;13.436;2023-02-14T03:02:15;103115.25;;;5.01;100.00
18985;BME280;9626;52.552;13.436;2023-02-14T03:05:03;103110.69;;;4.97;100.00
18985;BME280;9626;52.552;13.436;2023-02-14T03:07:48;103106.84;;;4.89;100.00
18985;BME280;9626;52.552;13.436;2023-02-14T03:10:36;103110.53;;;4.93;100.00
18985;BME280;9626;52.552;13.436;2023-02-14T03:22:34;103112.44;;;4.97;100.00
18985;BME280;9626;52.552;13.436;2023-02-14T03:25:48;103101.81;;;4.94;100.00
18985;BME280;9626;52.552;13.436;2023-02-14T03:28:46;103110.22;;;5.06;100.00
18985;BME280;9626;52.552;13.436;2023-02-14T03:35:14;103094.94;;;4.97;100.00
18985;BME280;9626;52.552;13.436;2023-02-14T03:38:10;103101.13;;;4.98;100.00
18985;BME280;9626;52.552;13.436;2023-02-14T03:41:12;103104.75;;;5.01;100.00
18985;BME280;9626;52.552;13.436;2023-02-14T03:44:00;103110.13;;;5.04;100.00
18985;BME280;9626;52.552;13.436;2023-02-14T03:46:53;103099.50;;;5.01;100.00
18985;BME280;9626;52.552;13.436;2023-02-14T03:49:25;103101.03;;;4.96;100.00
18985;BME280;9626;52.552;13.436;2023-02-14T03:51:55;103106.53;;;5.02;100.00
18985;BME280;9626;52.552;13.436;2023-02-14T03:54:24;103099.50;;;5.01;100.00
18985;BME280;9626;52.552;13.436;2023-02-14T03:56:56;103103.53;;;4.93;100.00
18985;BME280;9626;52.552;13.436;2023-02-14T03:59:25;103101.03;;;4.96;100.00
18985;BME280;9626;52.552;13.436;2023-02-14T04:04:26;103104.75;;;4.80;100.00
18985;BME280;9626;52.552;13.436;2023-02-14T04:06:54;103094.25;;;4.80;100.00
18985;BME280;9626;52.552;13.436;2023-02-14T04:09:21;103097.69;;;4.79;100.00
18985;BME280;9626;52.552;13.436;2023-02-14T04:11:47;103092.91;;;4.90;100.00
18985;BME280;9626;52.552;13.436;2023-02-14T04:14:16;103092.06;;;4.91;100.00
18985;BME280;9626;52.552;13.436;2023-02-14T04:16:42;103098.50;;;4.98;100.00
18985;BME280;9626;52.552;13.436;2023-02-14T04:19:40;103085.53;;;5.02;100.00
18985;BME280;9626;52.552;13.436;2023-02-14T04:22:06;103098.66;;;5.02;100.00
18985;BME280;9626;52.552;13.436;2023-02-14T04:24:32;103092.66;;;5.05;100.00
18985;BME280;9626;52.552;13.436;2023-02-14T04:26:58;103089.09;;;5.04;100.00
18985;BME280;9626;52.552;13.436;2023-02-14T04:32:03;103094.13;;;4.98;100.00
18985;BME280;9626;52.552;13.436;2023-02-14T04:34:29;103092.44;;;5.00;100.00
18985;BME280;9626;52.552;13.436;2023-02-14T04:36:55;103091.56;;;5.00;100.00
18985;BME280;9626;52.552;13.436;2023-02-14T04:39:21;103096.31;;;5.08;100.00
18985;BME280;9626;52.552;13.436;2023-02-14T04:41:47;103094.34;;;5.04;100.00
18985;BME280;9626;52.552;13.436;2023-02-14T04:44:13;103095.66;;;4.93;100.00
18985;BME280;9626;52.552;13.436;2023-02-14T04:46:40;103083.50;;;4.95;100.00
18985;BME280;9626;52.552;13.436;2023-02-14T04:49:06;103087.66;;;4.90;100.00
18985;BME280;9626;52.552;13.436;2023-02-14T04:51:31;103091.16;;;4.90;100.00
18985;BME280;9626;52.552;13.436;2023-02-14T04:53:57;103078.75;;;4.86;100.00
18985;BME280;9626;52.552;13.436;2023-02-14T04:56:24;103089.19;;;4.85;100.00
18985;BME280;9626;52.552;13.436;2023-02-14T04:58:53;103076.97;;;4.85;100.00
18985;BME280;9626;52.552;13.436;2023-02-14T05:01:19;103078.88;;;4.89;100.00
18985;BME280;9626;52.552;13.436;2023-02-14T05:03:45;103077.03;;;4.87;100.00
18985;BME280;9626;52.552;13.436;2023-02-14T05:06:11;103077.47;;;4.77;100.00
18985;BME280;9626;52.552;13.436;2023-02-14T05:08:37;103068.00;;;4.80;100.00
18985;BME280;9626;52.552;13.436;2023-02-14T05:11:03;103082.00;;;4.81;100.00
18985;BME280;9626;52.552;13.436;2023-02-14T05:13:29;103071.38;;;4.78;100.00
18985;BME280;9626;52.552;13.436;2023-02-14T05:15:58;103072.31;;;4.80;100.00
18985;BME280;9626;52.552;13.436;2023-02-14T05:18:24;103068.81;;;4.79;100.00
18985;BME280;9626;52.552;13.436;2023-02-14T05:20:51;103069.28;;;4.90;100.00
18985;BME280;9626;52.552;13.436;2023-02-14T05:23:18;103072.84;;;4.92;100.00
18985;BME280;9626;52.552;13.436;2023-02-14T05:25:47;103066.72;;;4.91;100.00
18985;BME280;9626;52.552;13.436;2023-02-14T05:28:13;103068.38;;;4.89;100.00
18985;BME280;9626;52.552;13.436;2023-02-14T05:30:39;103068.88;;;4.81;100.00
18985;BME280;9626;52.552;13.436;2023-02-14T05:33:05;103063.75;;;4.84;100.00
18985;BME280;9626;52.552;13.436;2023-02-14T05:35:31;103072.38;;;4.81;100.00
18985;BME280;9626;52.552;13.436;2023-02-14T05:37:58;103067.66;;;4.72;100.00
18985;BME280;9626;52.552;13.436;2023-02-14T05:40:24;103065.31;;;4.79;100.00
18985;BME280;9626;52.552;13.436;2023-02-14T05:42:51;103061.13;;;4.84;100.00
18985;BME280;9626;52.552;13.436;2023-02-14T05:45:18;103067.53;;;4.90;100.00
18985;BME280;9626;52.552;13.436;2023-02-14T05:47:44;103062.94;;;4.85;100.00
18985;BME280;9626;52.552;13.436;2023-02-14T05:50:11;103070.16;;;4.90;100.00
18985;BME280;9626;52.552;13.436;2023-02-14T05:52:37;103063.13;;;4.89;100.00
18985;BME280;9626;52.552;13.436;2023-02-14T05:55:04;103061.22;;;4.85;100.00
18985;BME280;9626;52.552;13.436;2023-02-14T05:57:30;103059.34;;;4.83;100.00
18985;BME280;9626;52.552;13.436;2023-02-14T05:59:56;103061.13;;;4.84;100.00
18985;BME280;9626;52.552;13.436;2023-02-14T06:02:22;103060.94;;;4.79;100.00
18985;BME280;9626;52.552;13.436;2023-02-14T06:04:48;103056.72;;;4.83;100.00
18985;BME280;9626;52.552;13.436;2023-02-14T06:07:14;103061.41;;;4.90;100.00
18985;BME280;9626;52.552;13.436;2023-02-14T06:09:40;103060.69;;;4.94;100.00
18985;BME280;9626;52.552;13.436;2023-02-14T06:12:06;103054.66;;;4.97;100.00
18985;BME280;9626;52.552;13.436;2023-02-14T06:14:32;103058.88;;;4.93;100.00
18985;BME280;9626;52.552;13.436;2023-02-14T06:16:58;103055.31;;;4.91;100.00
18985;BME280;9626;52.552;13.436;2023-02-14T06:19:24;103061.22;;;4.85;100.00
18985;BME280;9626;52.552;13.436;2023-02-14T06:21:50;103062.97;;;4.86;100.00
18985;BME280;9626;52.552;13.436;2023-02-14T06:24:16;103065.44;;;4.82;100.00
18985;BME280;9626;52.552;13.436;2023-02-14T06:26:42;103064.59;;;4.83;100.00
18985;BME280;9626;52.552;13.436;2023-02-14T06:29:08;103065.56;;;4.85;100.00
18985;BME280;9626;52.552;13.436;2023-02-14T06:31:34;103068.13;;;4.83;100.00
18985;BME280;9626;52.552;13.436;2023-02-14T06:34:00;103073.53;;;4.88;100.00
18985;BME280;9626;52.552;13.436;2023-02-14T06:36:27;103066.81;;;4.95;100.00
18985;BME280;9626;52.552;13.436;2023-02-14T06:38:53;103071.78;;;4.87;100.00
18985;BME280;9626;52.552;13.436;2023-02-14T06:41:19;103073.38;;;4.83;100.00
18985;BME280;9626;52.552;13.436;2023-02-14T06:43:46;103061.84;;;4.80;100.00
18985;BME280;9626;52.552;13.436;2023-02-14T06:46:17;103071.31;;;4.76;100.00
18985;BME280;9626;52.552;13.436;2023-02-14T06:48:43;103066.13;;;4.78;100.00
18985;BME280;9626;52.552;13.436;2023-02-14T06:51:09;103068.75;;;4.78;100.00
18985;BME280;9626;52.552;13.436;2023-02-14T06:53:35;103073.19;;;4.79;100.00
18985;BME280;9626;52.552;13.436;2023-02-14T06:56:02;103071.38;;;4.78;100.00
18985;BME280;9626;52.552;13.436;2023-02-14T06:58:28;103068.06;;;4.82;100.00
18985;BME280;9626;52.552;13.436;2023-02-14T07:00:55;103070.56;;;4.79;100.00
18985;BME280;9626;52.552;13.436;2023-02-14T07:03:22;103060.88;;;4.78;100.00
18985;BME280;9626;52.552;13.436;2023-02-14T07:05:48;103065.22;;;4.77;100.00
18985;BME280;9626;52.552;13.436;2023-02-14T07:08:14;103062.75;;;4.80;100.00
18985;BME280;9626;52.552;13.436;2023-02-14T07:10:40;103063.03;;;4.88;100.00
18985;BME280;9626;52.552;13.436;2023-02-14T07:13:06;103061.28;;;4.87;100.00
18985;BME280;9626;52.552;13.436;2023-02-14T07:15:32;103066.66;;;4.90;100.00
18985;BME280;9626;52.552;13.436;2023-02-14T07:17:59;103065.81;;;4.91;100.00
18985;BME280;9626;52.552;13.436;2023-02-14T07:20:25;103061.50;;;4.93;100.00
18985;BME280;9626;52.552;13.436;2023-02-14T07:22:51;103062.88;;;4.83;100.00
18985;BME280;9626;52.552;13.436;2023-02-14T07:25:17;103063.75;;;4.84;100.00
18985;BME280;9626;52.552;13.436;2023-02-14T07:27:43;103062.69;;;4.79;100.00
18985;BME280;9626;52.552;13.436;2023-02-14T07:30:09;103062.69;;;4.79;100.00
18985;BME280;9626;52.552;13.436;2023-02-14T07:32:39;103069.41;;;4.72;100.00
18985;BME280;9626;52.552;13.436;2023-02-14T07:35:06;103073.44;;;4.64;100.00
18985;BME280;9626;52.552;13.436;2023-02-14T07:37:33;103078.34;;;4.56;100.00
18985;BME280;9626;52.552;13.436;2023-02-14T07:40:00;103076.13;;;4.65;100.00
18985;BME280;9626;52.552;13.436;2023-02-14T07:42:26;103073.03;;;4.76;100.00
18985;BME280;9626;52.552;13.436;2023-02-14T07:44:52;103063.91;;;4.87;100.00
18985;BME280;9626;52.552;13.436;2023-02-14T07:47:19;103064.13;;;4.93;100.00
18985;BME280;9626;52.552;13.436;2023-02-14T07:49:45;103059.97;;;4.98;100.00
18985;BME280;9626;52.552;13.436;2023-02-14T07:52:11;103058.28;;;5.00;100.00
18985;BME280;9626;52.552;13.436;2023-02-14T07:54:37;103056.66;;;5.02;100.00
18985;BME280;9626;52.552;13.436;2023-02-14T07:57:04;103054.09;;;5.04;100.00
18985;BME280;9626;52.552;13.436;2023-02-14T07:59:30;103056.81;;;5.07;100.00
18985;BME280;9626;52.552;13.436;2023-02-14T08:01:56;103062.16;;;5.08;100.00
18985;BME280;9626;52.552;13.436;2023-02-14T08:04:23;103065.75;;;5.11;100.00
18985;BME280;9626;52.552;13.436;2023-02-14T08:06:54;103062.22;;;5.10;100.00
18985;BME280;9626;52.552;13.436;2023-02-14T08:09:20;103072.47;;;5.04;100.00
18985;BME280;9626;52.552;13.436;2023-02-14T08:11:54;103063.00;;;5.07;100.00
18985;BME280;9626;52.552;13.436;2023-02-14T08:14:39;103064.47;;;5.01;100.00
18985;BME280;9626;52.552;13.436;2023-02-14T08:17:05;103061.97;;;5.04;100.00
18985;BME280;9626;52.552;13.436;2023-02-14T08:19:33;103072.78;;;5.12;100.00
18985;BME280;9626;52.552;13.436;2023-02-14T08:21:59;103068.75;;;5.20;100.00
18985;BME280;9626;52.552;13.436;2023-02-14T08:24:28;103074.16;;;5.24;100.00
18985;BME280;9626;52.552;13.436;2023-02-14T08:27:12;103081.28;;;5.27;100.00
18985;BME280;9626;52.552;13.436;2023-02-14T08:29:38;103084.16;;;5.33;100.00
18985;BME280;9626;52.552;13.436;2023-02-14T08:32:10;103080.56;;;5.31;100.00
18985;BME280;9626;52.552;13.436;2023-02-14T08:34:35;103087.63;;;5.32;100.00
18985;BME280;9626;52.552;13.436;2023-02-14T08:37:02;103090.47;;;5.38;100.00
18985;BME280;9626;52.552;13.436;2023-02-14T08:39:28;103090.09;;;5.28;100.00
18985;BME280;9626;52.552;13.436;2023-02-14T08:41:53;103090.09;;;5.28;100.00
18985;BME280;9626;52.552;13.436;2023-02-14T08:44:19;103099.88;;;5.32;100.00
18985;BME280;9626;52.552;13.436;2023-02-14T08:46:46;103101.09;;;5.40;100.00
18985;BME280;9626;52.552;13.436;2023-02-14T08:49:12;103097.75;;;5.44;100.00
18985;BME280;9626;52.552;13.436;2023-02-14T08:51:38;103101.19;;;5.43;100.00
18985;BME280;9626;52.552;13.436;2023-02-14T08:54:04;103105.75;;;5.47;100.00
18985;BME280;9626;52.552;13.436;2023-02-14T08:56:30;103098.03;;;5.52;100.00
18985;BME280;9626;52.552;13.436;2023-02-14T08:58:56;103096.47;;;5.57;100.00
18985;BME280;9626;52.552;13.436;2023-02-14T09:01:22;103087.06;;;5.62;100.00
18985;BME280;9626;52.552;13.436;2023-02-14T09:03:48;103094.94;;;5.62;100.00
18985;BME280;9626;52.552;13.436;2023-02-14T09:06:15;103101.63;;;5.54;100.00
18985;BME280;9626;52.552;13.436;2023-02-14T09:08:42;103093.75;;;5.54;100.00
18985;BME280;9626;52.552;13.436;2023-02-14T09:11:18;103096.75;;;5.63;100.00
18985;BME280;9626;52.552;13.436;2023-02-14T09:13:45;103101.38;;;5.70;100.00
18985;BME280;9626;52.552;13.436;2023-02-14T09:16:13;103101.38;;;5.70;100.00
18985;BME280;9626;52.552;13.436;2023-02-14T09:18:41;103102.22;;;5.69;100.00
18985;BME280;9626;52.552;13.436;2023-02-14T09:21:13;103108.63;;;5.76;100.00
18985;BME280;9626;52.552;13.436;2023-02-14T09:23:39;103098.88;;;5.73;100.00
18985;BME280;9626;52.552;13.436;2023-02-14T09:26:09;103103.09;;;5.70;100.00
18985;BME280;9626;52.552;13.436;2023-02-14T09:28:36;103098.50;;;5.64;100.00
18985;BME280;9626;52.552;13.436;2023-02-14T09:31:14;103098.66;;;5.67;100.00
18985;BME280;9626;52.552;13.436;2023-02-14T09:33:42;103098.66;;;5.67;100.00
18985;BME280;9626;52.552;13.436;2023-02-14T09:36:08;103098.66;;;5.67;100.00
18985;BME280;9626;52.552;13.436;2023-02-14T09:38:53;103100.56;;;5.71;100.00
18985;BME280;9626;52.552;13.436;2023-02-14T09:44:05;103093.88;;;5.80;100.00
18985;BME280;9626;52.552;13.436;2023-02-14T09:46:40;103096.50;;;5.80;100.00
18985;BME280;9626;52.552;13.436;2023-02-14T09:49:14;103098.34;;;5.82;100.00
18985;BME280;9626;52.552;13.436;2023-02-14T09:51:47;103106.16;;;5.81;100.00
18985;BME280;9626;52.552;13.436;2023-02-14T09:54:25;103101.81;;;5.81;100.00
18985;BME280;9626;52.552;13.436;2023-02-14T09:59:36;103100.16;;;5.85;100.00
18985;BME280;9626;52.552;13.436;2023-02-14T10:13:01;103112.91;;;5.97;100.00
18985;BME280;9626;52.552;13.436;2023-02-14T10:15:33;103101.75;;;6.02;100.00
18985;BME280;9626;52.552;13.436;2023-02-14T10:18:06;103101.78;;;6.04;100.00
18985;BME280;9626;52.552;13.436;2023-02-14T10:20:49;103103.66;;;6.06;100.00
18985;BME280;9626;52.552;13.436;2023-02-14T10:23:32;103094.97;;;6.09;100.00
18985;BME280;9626;52.552;13.436;2023-02-14T10:28:31;103099.75;;;6.19;100.00
18985;BME280;9626;52.552;13.436;2023-02-14T10:36:43;103094.97;;;6.09;100.00
18985;BME280;9626;52.552;13.436;2023-02-14T10:39:51;103092.53;;;6.14;100.00
18985;BME280;9626;52.552;13.436;2023-02-14T10:42:51;103087.16;;;6.11;100.00
18985;BME280;9626;52.552;13.436;2023-02-14T10:45:42;103082.06;;;6.15;100.00
18985;BME280;9626;52.552;13.436;2023-02-14T10:51:18;103077.78;;;5.95;100.00
18985;BME280;9626;52.552;13.436;2023-02-14T10:56:19;103085.25;;;6.06;100.00
18985;BME280;9626;52.552;13.436;2023-02-14T10:58:49;103080.94;;;6.08;100.00
18985;BME280;9626;52.552;13.436;2023-02-14T11:01:17;103085.28;;;6.08;100.00
18985;BME280;9626;52.552;13.436;2023-02-14T11:03:58;103086.22;;;6.08;100.00
18985;BME280;9626;52.552;13.436;2023-02-14T11:06:29;103085.28;;;6.08;100.00
18985;BME280;9626;52.552;13.436;2023-02-14T11:08:55;103073.28;;;5.92;100.00
18985;BME280;9626;52.552;13.436;2023-02-14T11:11:26;103078.41;;;5.89;100.00
18985;BME280;9626;52.552;13.436;2023-02-14T11:13:54;103072.31;;;5.90;100.00
18985;BME280;9626;52.552;13.436;2023-02-14T11:16:31;103069.81;;;5.93;100.00
18985;BME280;9626;52.552;13.436;2023-02-14T11:21:43;103063.72;;;6.17;100.00
18985;BME280;9626;52.552;13.436;2023-02-14T11:24:17;103063.38;;;6.32;100.00
18985;BME280;9626;52.552;13.436;2023-02-14T11:26:46;103065.31;;;6.37;100.00
18985;BME280;9626;52.552;13.436;2023-02-14T11:29:16;103064.81;;;6.48;100.00
18985;BME280;9626;52.552;13.436;2023-02-14T11:31:46;103071.97;;;6.52;100.00
18985;BME280;9626;52.552;13.436;2023-02-14T11:34:32;103061.31;;;6.49;100.00
18985;BME280;9626;52.552;13.436;2023-02-14T11:37:03;103061.72;;;6.35;100.00
18985;BME280;9626;52.552;13.436;2023-02-14T11:39:34;103047.81;;;6.14;100.00
18985;BME280;9626;52.552;13.436;2023-02-14T11:42:03;103063.47;;;6.11;100.00
18985;BME280;9626;52.552;13.436;2023-02-14T11:44:32;103061.56;;;6.06;100.00
18985;BME280;9626;52.552;13.436;2023-02-14T11:47:25;103051.09;;;6.08;100.00
18985;BME280;9626;52.552;13.436;2023-02-14T11:50:04;103049.38;;;6.08;100.00
18985;BME280;9626;52.552;13.436;2023-02-14T11:52:32;103052.16;;;6.13;100.00
18985;BME280;9626;52.552;13.436;2023-02-14T11:55:05;103050.59;;;6.18;100.00
18985;BME280;9626;52.552;13.436;2023-02-14T11:57:34;103042.75;;;6.20;100.00
18985;BME280;9626;52.552;13.436;2023-02-14T12:00:14;103044.66;;;6.24;100.00
18985;BME280;9626;52.552;13.436;2023-02-14T12:02:46;103042.75;;;6.20;100.00
18985;BME280;9626;52.552;13.436;2023-02-14T12:07:57;103034.38;;;6.06;100.00
18985;BME280;9626;52.552;13.436;2023-02-14T12:10:33;103032.13;;;6.17;100.00
18985;BME280;9626;52.552;13.436;2023-02-14T12:24:04;103019.13;;;5.97;100.00
18985;BME280;9626;52.552;13.436;2023-02-14T12:26:32;103017.19;;;5.93;100.00
18985;BME280;9626;52.552;13.436;2023-02-14T12:31:52;103004.78;;;5.89;100.00
18985;BME280;9626;52.552;13.436;2023-02-14T12:34:22;102997.84;;;5.91;100.00
18985;BME280;9626;52.552;13.436;2023-02-14T12:37:07;102995.72;;;6.03;100.00
18985;BME280;9626;52.552;13.436;2023-02-14T12:42:47;102982.44;;;6.00;100.00
18985;BME280;9626;52.552;13.436;2023-02-14T12:51:25;102972.38;;;6.13;100.00
18985;BME280;9626;52.552;13.436;2023-02-14T12:56:30;102964.56;;;6.41;100.00
18985;BME280;9626;52.552;13.436;2023-02-14T12:59:31;102962.94;;;6.45;100.00
18985;BME280;9626;52.552;13.436;2023-02-14T13:14:14;102961.84;;;6.13;100.00
18985;BME280;9626;52.552;13.436;2023-02-14T13:16:57;102950.53;;;6.15;100.00
18985;BME280;9626;52.552;13.436;2023-02-14T13:22:17;102954.88;;;6.15;100.00
18985;BME280;9626;52.552;13.436;2023-02-14T13:24:47;102945.22;;;6.14;100.00
18985;BME280;9626;52.552;13.436;2023-02-14T13:27:23;102949.19;;;6.02;100.00
18985;BME280;9626;52.552;13.436;2023-02-14T13:29:54;102946.19;;;5.93;100.00
18985;BME280;9626;52.552;13.436;2023-02-14T13:32:25;102946.72;;;5.83;100.00
18985;BME280;9626;52.552;13.436;2023-02-14T13:34:54;102945.38;;;5.94;100.00
18985;BME280;9626;52.552;13.436;2023-02-14T13:37:22;102942.03;;;5.98;100.00
18985;BME280;9626;52.552;13.436;2023-02-14T13:40:03;102940.56;;;6.06;100.00
18985;BME280;9626;52.552;13.436;2023-02-14T13:48:05;102937.53;;;5.96;100.00
18985;BME280;9626;52.552;13.436;2023-02-14T13:50:33;102938.38;;;5.95;100.00
18985;BME280;9626;52.552;13.436;2023-02-14T13:53:01;102936.66;;;5.95;100.00
18985;BME280;9626;52.552;13.436;2023-02-14T13:55:33;102935.75;;;5.95;100.00
18985;BME280;9626;52.552;13.436;2023-02-14T13:58:03;102936.53;;;5.92;100.00
18985;BME280;9626;52.552;13.436;2023-02-14T14:00:40;102933.31;;;5.99;100.00
18985;BME280;9626;52.552;13.436;2023-02-14T14:06:11;102928.94;;;6.00;100.00
18985;BME280;9626;52.552;13.436;2023-02-14T14:08:43;102923.94;;;6.07;100.00
18985;BME280;9626;52.552;13.436;2023-02-14T14:21:40;102917.41;;;6.20;100.00
18985;BME280;9626;52.552;13.436;2023-02-14T14:24:24;102917.16;;;6.14;100.00
18985;BME280;9626;52.552;13.436;2023-02-14T14:26:58;102918.53;;;6.03;100.00
18985;BME280;9626;52.552;13.436;2023-02-14T14:29:29;102917.06;;;5.87;100.00
18985;BME280;9626;52.552;13.436;2023-02-14T14:31:56;102914.44;;;5.87;100.00
18985;BME280;9626;52.552;13.436;2023-02-14T14:34:25;102913.28;;;5.79;100.00
18985;BME280;9626;52.552;13.436;2023-02-14T14:37:06;102920.19;;;5.76;100.00
18985;BME280;9626;52.552;13.436;2023-02-14T14:39:40;102914.84;;;5.73;100.00
18985;BME280;9626;52.552;13.436;2023-02-14T14:42:13;102921.91;;;5.74;100.00
18985;BME280;9626;52.552;13.436;2023-02-14T14:44:56;102921.22;;;5.80;100.00
18985;BME280;9626;52.552;13.436;2023-02-14T14:47:30;102917.81;;;5.83;100.00
18985;BME280;9626;52.552;13.436;2023-02-14T14:50:04;102916.97;;;5.84;100.00
18985;BME280;9626;52.552;13.436;2023-02-14T14:52:38;102912.09;;;5.70;100.00
18985;BME280;9626;52.552;13.436;2023-02-14T14:55:06;102911.03;;;5.65;100.00
18985;BME280;9626;52.552;13.436;2023-02-14T14:57:35;102910.84;;;5.59;100.00
18985;BME280;9626;52.552;13.436;2023-02-14T15:00:23;102903.59;;;5.53;100.00
18985;BME280;9626;52.552;13.436;2023-02-14T15:05:30;102904.50;;;5.54;100.00
18985;BME280;9626;52.552;13.436;2023-02-14T15:08:11;102897.91;;;5.65;100.00
18985;BME280;9626;52.552;13.436;2023-02-14T15:10:38;102895.28;;;5.65;100.00
18985;BME280;9626;52.552;13.436;2023-02-14T15:13:04;102895.72;;;5.53;100.00
18985;BME280;9626;52.552;13.436;2023-02-14T15:15:49;102895.56;;;5.49;100.00
18985;BME280;9626;52.552;13.436;2023-02-14T15:18:17;102884.75;;;5.41;100.00
18985;BME280;9626;52.552;13.436;2023-02-14T15:21:08;102885.66;;;5.41;100.00
18985;BME280;9626;52.552;13.436;2023-02-14T15:23:37;102878.72;;;5.44;100.00
18985;BME280;9626;52.552;13.436;2023-02-14T15:26:04;102887.56;;;5.46;100.00
18985;BME280;9626;52.552;13.436;2023-02-14T15:28:34;102880.41;;;5.41;100.00
18985;BME280;9626;52.552;13.436;2023-02-14T15:31:02;102888.34;;;5.43;100.00
18985;BME280;9626;52.552;13.436;2023-02-14T15:33:30;102881.25;;;5.40;100.00
18985;BME280;9626;52.552;13.436;2023-02-14T15:36:01;102878.28;;;5.31;100.00
18985;BME280;9626;52.552;13.436;2023-02-14T15:38:28;102879.81;;;5.26;100.00
18985;BME280;9626;52.552;13.436;2023-02-14T15:40:55;102874.47;;;5.23;100.00
18985;BME280;9626;52.552;13.436;2023-02-14T15:43:35;102869.00;;;5.17;100.00